Terminal Aerodrome Forecast
Issued by NWS Sterling, VA

Current Version | Previous Version | Graphics & Text | Print | Product List | Glossary On
Versions: 1 2 3 4 5 6 7 8 9 10 11 12 13 14 15 16 17 18 19
000
FTUS41 KLWX 291041 AAB
TAFMRB
TAF AMD
KMRB 291041Z 2911/3006 00000KT 1/2SM FG BKN002
     FM291200 VRB03KT 3SM BR BKN025
     FM291300 16003KT P6SM SCT100
     FM291500 16006KT P6SM BKN050
     FM292000 17009KT P6SM SCT050=

USA.gov is the U.S. government's official web portal to all federal, state and local government web resources and services.